createdAt,value
2018-06-25T00:02:40.779Z,101487.61
2018-06-25T00:07:33.743Z,101488.14
2018-06-25T00:12:26.741Z,101483.19
2018-06-25T00:17:19.783Z,101477.17
2018-06-25T00:22:12.751Z,101482.54
2018-06-25T00:27:05.773Z,101473.81
2018-06-25T00:31:58.772Z,101464.53
2018-06-25T00:36:51.737Z,101460.41
2018-06-25T00:41:44.832Z,101451.06
2018-06-25T00:46:37.815Z,101464.78
2018-06-25T00:51:30.869Z,101466.61
2018-06-25T00:56:23.906Z,101468.77
2018-06-25T01:01:16.867Z,101473.00
2018-06-25T01:06:09.950Z,101465.04
2018-06-25T01:11:03.019Z,101471.72
2018-06-25T01:15:55.979Z,101477.02
2018-06-25T01:20:49.052Z,101475.06
2018-06-25T01:25:42.074Z,101478.56
2018-06-25T01:30:35.026Z,101469.34
2018-06-25T01:35:28.055Z,101457.13
2018-06-25T01:40:21.019Z,101459.30
2018-06-25T01:45:13.966Z,101461.19
2018-06-25T01:50:06.985Z,101459.59
2018-06-25T01:54:59.990Z,101470.14
2018-06-25T01:59:52.909Z,101475.13
2018-06-25T02:04:45.970Z,101480.48
2018-06-25T02:09:39.007Z,101487.25
2018-06-25T02:14:32.040Z,101492.14
2018-06-25T02:19:25.104Z,101490.79
2018-06-25T02:24:18.130Z,101482.86
2018-06-25T02:29:11.171Z,101487.45
2018-06-25T02:34:04.927Z,101483.62
2018-06-25T02:38:57.964Z,101486.33
2018-06-25T02:43:50.891Z,101481.20
2018-06-25T02:48:43.836Z,101482.86
2018-06-25T02:53:36.831Z,101487.91
2018-06-25T02:58:29.811Z,101496.50
2018-06-25T03:03:22.716Z,101506.70
2018-06-25T03:08:15.706Z,101510.86
2018-06-25T03:13:08.784Z,101506.27
2018-06-25T03:18:01.929Z,101510.92
2018-06-25T03:22:54.954Z,101519.58
2018-06-25T03:27:48.100Z,101525.16
2018-06-25T03:32:41.100Z,101528.84
2018-06-25T03:37:34.119Z,101527.33
2018-06-25T03:42:27.394Z,101530.64
2018-06-25T03:47:20.527Z,101518.31
2018-06-25T03:52:13.451Z,101515.01
2018-06-25T03:57:06.500Z,101516.06
2018-06-25T04:01:59.638Z,101528.25
2018-06-25T04:06:52.639Z,101534.48
2018-06-25T04:11:45.679Z,101539.15
2018-06-25T04:16:38.781Z,101548.09
2018-06-25T04:21:32.848Z,101561.41
2018-06-25T04:26:25.824Z,101561.41
2018-06-25T04:31:18.895Z,101567.12
2018-06-25T04:36:11.904Z,101579.61
2018-06-25T04:41:05.044Z,101583.81
2018-06-25T04:45:58.076Z,101586.90
2018-06-25T04:50:51.213Z,101575.23
2018-06-25T04:55:44.208Z,101573.66
2018-06-25T05:00:37.358Z,101572.30
2018-06-25T05:05:30.385Z,101581.34
2018-06-25T05:10:23.378Z,101586.68
2018-06-25T05:15:16.418Z,101596.23
2018-06-25T05:20:09.524Z,101606.05
2018-06-25T05:25:02.569Z,101599.36
2018-06-25T05:29:55.754Z,101608.34
2018-06-25T05:34:48.870Z,101609.59
2018-06-25T05:39:41.995Z,101597.66
2018-06-25T05:44:35.005Z,101608.03
2018-06-25T05:49:27.992Z,101600.39
2018-06-25T05:54:21.155Z,101610.87
2018-06-25T05:59:14.110Z,101616.50
2018-06-25T06:04:07.170Z,101620.98
2018-06-25T06:09:00.362Z,101613.25
2018-06-25T06:13:53.379Z,101618.52
2018-06-25T06:18:46.589Z,101622.50
2018-06-25T06:23:39.642Z,101611.39
2018-06-25T06:28:32.643Z,101630.66
2018-06-25T06:33:25.701Z,101628.53
2018-06-25T06:38:18.708Z,101630.41
2018-06-25T06:43:11.683Z,101634.03
2018-06-25T06:48:04.937Z,101637.56
2018-06-25T06:52:57.899Z,101639.36
2018-06-25T06:57:50.997Z,101645.38
2018-06-25T07:02:43.924Z,101646.06
2018-06-25T07:07:36.893Z,101647.84
2018-06-25T07:12:29.928Z,101646.87
2018-06-25T07:17:23.111Z,101649.19
2018-06-25T07:22:16.153Z,101651.22
2018-06-25T07:27:09.321Z,101652.05
2018-06-25T07:32:02.351Z,101652.09
2018-06-25T07:36:55.391Z,101649.24
2018-06-25T07:41:48.574Z,101656.99
2018-06-25T07:46:41.757Z,101653.87
2018-06-25T07:51:34.913Z,101658.02
2018-06-25T07:56:28.032Z,101660.40
2018-06-25T08:01:21.257Z,101660.09
2018-06-25T08:06:14.359Z,101664.23
2018-06-25T08:11:07.438Z,101669.84
2018-06-25T08:16:00.603Z,101671.69
2018-06-25T08:20:53.780Z,101667.05
2018-06-25T08:25:46.754Z,101671.30
2018-06-25T08:30:39.737Z,101678.26
2018-06-25T08:35:32.760Z,101679.58
2018-06-25T08:40:25.899Z,101698.36
2018-06-25T08:45:18.956Z,101697.85
2018-06-25T08:50:12.062Z,101704.22
2018-06-25T08:55:05.277Z,101703.41
2018-06-25T08:59:58.383Z,101707.27
2018-06-25T09:04:51.439Z,101705.59
2018-06-25T09:09:44.575Z,101708.14
2018-06-25T09:14:37.711Z,101703.80
2018-06-25T09:19:30.728Z,101711.64
2018-06-25T09:24:23.816Z,101717.89
2018-06-25T09:29:16.744Z,101708.73
2018-06-25T09:34:15.384Z,101715.15
2018-06-25T09:39:10.389Z,101714.61
2018-06-25T09:44:03.570Z,101717.31
2018-06-25T09:48:56.672Z,101724.36
2018-06-25T09:53:49.566Z,101715.92
2018-06-25T09:58:42.479Z,101723.38
2018-06-25T10:03:35.505Z,101716.04
2018-06-25T10:08:28.406Z,101714.78
2018-06-25T10:13:21.520Z,101721.45
2018-06-25T10:18:14.530Z,101718.70
2018-06-25T10:23:07.565Z,101720.03
2018-06-25T10:28:00.589Z,101723.20
2018-06-25T10:32:53.583Z,101717.55
2018-06-25T10:37:46.625Z,101715.74
2018-06-25T10:42:39.670Z,101704.25
2018-06-25T10:47:32.653Z,101700.43
2018-06-25T10:52:25.808Z,101696.12
2018-06-25T10:57:18.897Z,101690.58
2018-06-25T11:02:11.989Z,101688.33
2018-06-25T11:07:05.032Z,101688.27
2018-06-25T11:11:58.067Z,101688.19
2018-06-25T11:16:51.433Z,101678.84
2018-06-25T11:21:44.460Z,101674.97
2018-06-25T11:26:37.764Z,101674.02
2018-06-25T11:31:30.801Z,101667.55
2018-06-25T11:36:23.742Z,101665.38
2018-06-25T11:41:16.798Z,101657.00
2018-06-25T11:46:09.801Z,101649.09
2018-06-25T11:51:02.829Z,101648.53
2018-06-25T11:55:55.864Z,101646.34
2018-06-25T12:00:48.916Z,101645.80
2018-06-25T12:05:41.960Z,101640.30
2018-06-25T12:10:35.073Z,101641.88
2018-06-25T12:15:28.095Z,101634.76
2018-06-25T12:20:21.183Z,101633.03
2018-06-25T12:25:14.460Z,101634.95
2018-06-25T12:30:07.704Z,101625.95
2018-06-25T12:35:01.559Z,101631.98
2018-06-25T12:39:54.811Z,101626.53
2018-06-25T12:44:47.804Z,101631.94
2018-06-25T12:49:40.953Z,101630.29
2018-06-25T12:54:34.604Z,101632.44
2018-06-25T12:59:27.706Z,101628.01
2018-06-25T13:04:21.168Z,101629.08
2018-06-25T13:09:14.346Z,101623.80
2018-06-25T13:14:08.125Z,101622.09
2018-06-25T13:19:01.391Z,101623.94
2018-06-25T13:23:54.394Z,101621.17
2018-06-25T13:28:47.399Z,101630.78
2018-06-25T13:33:40.577Z,101630.45
2018-06-25T13:38:33.629Z,101623.55
2018-06-25T13:43:26.725Z,101639.67
2018-06-25T13:48:19.883Z,101626.20
2018-06-25T13:53:13.041Z,101627.81
2018-06-25T13:58:06.260Z,101632.40
2018-06-25T14:02:59.313Z,101630.95
2018-06-25T14:07:52.639Z,101626.01
2018-06-25T14:12:45.637Z,101622.98
2018-06-25T14:17:38.803Z,101615.91
2018-06-25T14:22:31.838Z,101614.54
2018-06-25T14:27:24.804Z,101614.23
2018-06-25T14:32:23.441Z,101610.88
2018-06-25T14:37:16.411Z,101611.14
2018-06-25T14:42:09.401Z,101624.59
2018-06-25T14:47:02.383Z,101619.90
2018-06-25T14:51:55.350Z,101623.41
2018-06-25T14:56:48.347Z,101620.10
2018-06-25T15:01:41.376Z,101620.39
2018-06-25T15:06:34.401Z,101612.97
2018-06-25T15:11:27.444Z,101609.39
2018-06-25T15:16:20.544Z,101611.02
2018-06-25T15:21:13.604Z,101611.61
2018-06-25T15:26:06.757Z,101610.59
2018-06-25T15:30:59.903Z,101608.69
2018-06-25T15:35:53.022Z,101607.33
2018-06-25T15:40:46.094Z,101607.11
2018-06-25T15:45:39.137Z,101606.59
2018-06-25T15:50:32.157Z,101605.28
2018-06-25T15:55:25.347Z,101610.25
2018-06-25T16:00:18.349Z,101598.21
2018-06-25T16:05:11.404Z,101597.72
2018-06-25T16:10:04.632Z,101589.55
2018-06-25T16:14:57.589Z,101586.55
2018-06-25T16:19:50.737Z,101594.28
2018-06-25T16:24:43.734Z,101588.53
2018-06-25T16:29:36.871Z,101586.13
2018-06-25T16:34:30.077Z,101593.83
2018-06-25T16:39:23.173Z,101602.89
2018-06-25T16:44:16.143Z,101604.31
2018-06-25T16:49:09.172Z,101612.30
2018-06-25T16:54:02.283Z,101616.45
2018-06-25T16:58:55.284Z,101611.80
2018-06-25T17:03:48.508Z,101618.43
2018-06-25T17:08:41.596Z,101619.53
2018-06-25T17:13:34.669Z,101620.33
2018-06-25T17:18:27.743Z,101620.09
2018-06-25T17:23:20.862Z,101609.69
2018-06-25T17:28:13.936Z,101604.21
2018-06-25T17:33:06.930Z,101604.80
2018-06-25T17:38:00.130Z,101599.60
2018-06-25T17:42:53.260Z,101605.08
2018-06-25T17:47:46.306Z,101601.02
2018-06-25T17:52:39.483Z,101610.06
2018-06-25T17:57:32.870Z,101621.34
2018-06-25T18:02:26.013Z,101626.27
2018-06-25T18:07:19.074Z,101629.31
2018-06-25T18:12:12.182Z,101630.98
2018-06-25T18:17:05.256Z,101634.30
2018-06-25T18:21:58.664Z,101633.74
2018-06-25T18:26:51.790Z,101640.03
2018-06-25T18:31:45.110Z,101634.30
2018-06-25T18:36:38.111Z,101640.86
2018-06-25T18:41:31.063Z,101656.47
2018-06-25T18:46:24.431Z,101662.77
2018-06-25T18:51:17.537Z,101661.41
2018-06-25T18:56:10.851Z,101670.97
2018-06-25T19:01:03.801Z,101676.44
2018-06-25T19:05:56.990Z,101680.81
2018-06-25T19:10:50.929Z,101689.24
2018-06-25T19:15:44.169Z,101692.52
2018-06-25T19:20:37.485Z,101685.91
2018-06-25T19:25:30.951Z,101701.18
2018-06-25T19:30:24.095Z,101696.78
2018-06-25T19:35:17.270Z,101710.42
2018-06-25T19:40:10.388Z,101712.59
2018-06-25T19:45:03.949Z,101720.75
2018-06-25T19:49:57.115Z,101723.73
2018-06-25T19:54:50.243Z,101725.91
2018-06-25T19:59:43.485Z,101730.52
2018-06-25T20:04:36.473Z,101738.64
2018-06-25T20:09:29.520Z,101740.52
2018-06-25T20:14:22.549Z,101741.58
2018-06-25T20:19:15.875Z,101745.87
2018-06-25T20:24:09.167Z,101746.09
2018-06-25T20:29:02.233Z,101742.73
2018-06-25T20:33:55.432Z,101744.08
2018-06-25T20:38:48.410Z,101748.41
2018-06-25T20:43:41.431Z,101750.80
2018-06-25T20:48:34.584Z,101748.84
2018-06-25T20:53:27.580Z,101749.28
2018-06-25T20:58:20.590Z,101758.77
2018-06-25T21:03:13.568Z,101762.30
2018-06-25T21:08:06.625Z,101767.14
2018-06-25T21:12:59.727Z,101773.10
2018-06-25T21:17:52.802Z,101767.08
2018-06-25T21:22:45.877Z,101767.29
2018-06-25T21:27:38.865Z,101757.71
2018-06-25T21:32:32.021Z,101757.36
2018-06-25T21:37:25.057Z,101749.39
2018-06-25T21:42:18.026Z,101761.55
2018-06-25T21:47:11.296Z,101762.59
2018-06-25T21:52:04.381Z,101758.67
2018-06-25T21:56:57.358Z,101757.23
2018-06-25T22:01:52.485Z,101757.14
2018-06-25T22:06:45.409Z,101764.95
2018-06-25T22:11:38.421Z,101768.70
2018-06-25T22:16:31.526Z,101778.69
2018-06-25T22:21:25.324Z,101778.64
2018-06-25T22:26:18.358Z,101787.80
2018-06-25T22:31:11.393Z,101783.16
2018-06-25T22:36:04.524Z,101792.61
2018-06-25T22:40:57.604Z,101790.61
2018-06-25T22:45:51.022Z,101794.55
2018-06-25T22:50:44.021Z,101793.37
2018-06-25T22:55:37.042Z,101790.80
2018-06-25T23:00:30.438Z,101791.77
2018-06-25T23:05:23.552Z,101788.95
2018-06-25T23:10:16.554Z,101794.03
2018-06-25T23:15:09.627Z,101793.93
2018-06-25T23:20:02.749Z,101802.82
2018-06-25T23:24:55.831Z,101804.64
2018-06-25T23:29:48.856Z,101809.45
2018-06-25T23:34:41.872Z,101811.56
2018-06-25T23:39:34.911Z,101820.20
2018-06-25T23:44:27.876Z,101821.48
2018-06-25T23:49:20.982Z,101818.66
2018-06-25T23:54:13.947Z,101817.19
2018-06-25T23:59:07.022Z,101819.53
